createdAt,value
2022-08-03T00:01:45.669Z,85.90
2022-08-03T00:04:15.311Z,86.70
2022-08-03T00:06:45.718Z,86.80
2022-08-03T00:09:16.896Z,87.60
2022-08-03T00:11:46.463Z,87.10
2022-08-03T00:14:15.956Z,87.70
2022-08-03T00:16:45.562Z,88.70
2022-08-03T00:19:15.143Z,88.50
2022-08-03T00:21:46.071Z,88.00
2022-08-03T00:24:17.230Z,87.70
2022-08-03T00:26:46.863Z,87.90
2022-08-03T00:29:16.358Z,86.60
2022-08-03T00:31:52.474Z,87.60
2022-08-03T00:34:36.702Z,87.70
2022-08-03T00:37:12.285Z,87.70
2022-08-03T00:39:43.887Z,87.60
2022-08-03T00:42:15.674Z,88.30
2022-08-03T00:44:46.812Z,87.40
2022-08-03T00:47:16.431Z,87.60
2022-08-03T00:49:46.171Z,87.30
2022-08-03T00:52:17.300Z,88.00
2022-08-03T00:54:48.430Z,87.10
2022-08-03T00:57:18.201Z,86.70
2022-08-03T00:59:47.981Z,87.50
2022-08-03T01:02:17.900Z,88.40
2022-08-03T01:04:47.749Z,86.80
2022-08-03T01:07:23.773Z,89.00
2022-08-03T01:10:02.770Z,89.10
2022-08-03T01:12:39.950Z,88.30
2022-08-03T01:15:16.692Z,88.30
2022-08-03T01:17:52.602Z,88.80
2022-08-03T01:20:24.263Z,89.50
2022-08-03T01:23:20.141Z,88.50
2022-08-03T01:26:07.828Z,88.60
2022-08-03T01:28:58.859Z,89.50
2022-08-03T01:31:34.548Z,89.50
2022-08-03T01:34:27.819Z,88.40
2022-08-03T01:37:00.040Z,88.80
2022-08-03T01:39:32.360Z,88.50
2022-08-03T01:42:06.631Z,88.60
2022-08-03T01:44:42.037Z,87.80
2022-08-03T01:47:14.750Z,88.10
2022-08-03T01:49:47.318Z,87.90
2022-08-03T01:52:20.336Z,88.70
2022-08-03T01:54:53.954Z,88.80
2022-08-03T01:57:24.593Z,88.70
2022-08-03T01:59:57.622Z,89.20
2022-08-03T02:02:34.137Z,88.40
2022-08-03T02:05:10.660Z,89.00
2022-08-03T02:07:43.826Z,89.10
2022-08-03T02:10:16.538Z,89.40
2022-08-03T02:13:07.059Z,89.20
2022-08-03T02:15:38.895Z,87.40
2022-08-03T02:18:11.613Z,87.00
2022-08-03T02:20:43.649Z,88.40
2022-08-03T02:23:13.871Z,90.00
2022-08-03T02:25:47.357Z,90.20
2022-08-03T02:28:20.388Z,90.50
2022-08-03T02:30:58.963Z,90.90
2022-08-03T02:33:34.398Z,91.00
2022-08-03T02:36:05.020Z,91.10
2022-08-03T02:38:38.518Z,90.70
2022-08-03T02:41:15.388Z,90.90
2022-08-03T02:44:05.717Z,91.10
2022-08-03T02:46:40.264Z,90.90
2022-08-03T02:49:40.814Z,91.10
2022-08-03T02:52:05.815Z,91.50
2022-08-03T02:54:43.278Z,91.60
2022-08-03T02:57:14.522Z,91.70
2022-08-03T02:59:45.728Z,91.50
2022-08-03T03:02:17.621Z,91.70
2022-08-03T03:05:52.758Z,91.50
2022-08-03T03:07:51.866Z,91.50
2022-08-03T03:10:24.423Z,91.60
2022-08-03T03:12:57.067Z,91.30
2022-08-03T03:15:29.112Z,91.80
2022-08-03T03:17:59.166Z,91.90
2022-08-03T03:20:33.215Z,91.80
2022-08-03T03:23:06.354Z,91.90
2022-08-03T03:25:37.602Z,92.00
2022-08-03T03:28:08.889Z,92.20
2022-08-03T03:30:39.060Z,92.20
2022-08-03T03:33:09.107Z,92.40
2022-08-03T03:35:40.826Z,92.50
2022-08-03T03:38:12.115Z,92.30
2022-08-03T03:40:42.493Z,92.60
2022-08-03T03:43:12.818Z,92.70
2022-08-03T03:45:44.076Z,92.80
2022-08-03T03:48:13.776Z,92.80
2022-08-03T03:50:46.520Z,92.80
2022-08-03T03:53:16.756Z,93.00
2022-08-03T03:56:01.536Z,92.70
2022-08-03T03:58:34.039Z,92.60
2022-08-03T04:01:03.803Z,92.70
2022-08-03T04:03:33.540Z,92.70
2022-08-03T04:06:22.199Z,92.80
2022-08-03T04:09:14.604Z,92.80
2022-08-03T04:11:50.727Z,93.20
2022-08-03T04:14:22.636Z,93.20
2022-08-03T04:16:55.413Z,93.10
2022-08-03T04:19:30.201Z,92.90
2022-08-03T04:22:05.550Z,92.90
2022-08-03T04:24:40.297Z,92.80
2022-08-03T04:27:13.442Z,92.50
2022-08-03T04:29:48.825Z,92.50
2022-08-03T04:32:20.716Z,92.70
2022-08-03T04:34:50.536Z,92.30
2022-08-03T04:37:32.162Z,92.30
2022-08-03T04:40:05.817Z,92.20
2022-08-03T04:42:37.240Z,92.20
2022-08-03T04:45:08.447Z,92.30
2022-08-03T04:47:39.816Z,92.30
2022-08-03T04:50:13.499Z,92.00
2022-08-03T04:52:46.671Z,92.10
2022-08-03T04:55:28.233Z,92.10
2022-08-03T04:57:57.978Z,92.00
2022-08-03T05:00:28.658Z,91.70
2022-08-03T05:02:58.585Z,92.00
2022-08-03T05:05:50.206Z,91.80
2022-08-03T05:08:20.352Z,91.70
2022-08-03T05:10:50.788Z,91.70
2022-08-03T05:13:21.635Z,91.30
2022-08-03T05:15:51.499Z,92.10
2022-08-03T05:18:21.324Z,92.00
2022-08-03T05:20:51.248Z,92.40
2022-08-03T05:23:22.605Z,92.20
2022-08-03T05:25:52.370Z,92.30
2022-08-03T05:28:21.888Z,92.10
2022-08-03T05:30:53.124Z,91.80
2022-08-03T05:33:22.661Z,92.30
2022-08-03T05:35:56.037Z,92.00
2022-08-03T05:38:36.729Z,92.50
2022-08-03T05:41:21.658Z,93.20
2022-08-03T05:43:53.320Z,93.40
2022-08-03T05:46:24.012Z,92.30
2022-08-03T05:48:54.410Z,91.90
2022-08-03T05:51:24.283Z,92.10
2022-08-03T05:53:55.433Z,92.20
2022-08-03T05:56:26.047Z,92.00
2022-08-03T05:58:56.524Z,92.30
2022-08-03T06:01:26.097Z,92.80
2022-08-03T06:03:56.069Z,93.10
2022-08-03T06:06:32.172Z,92.70
2022-08-03T06:09:04.041Z,93.40
2022-08-03T06:11:34.062Z,93.50
2022-08-03T06:14:04.051Z,92.80
2022-08-03T06:16:34.223Z,92.70
2022-08-03T06:19:04.001Z,92.80
2022-08-03T06:21:33.870Z,92.00
2022-08-03T06:24:06.327Z,92.70
2022-08-03T06:26:37.803Z,92.00
2022-08-03T06:29:11.164Z,91.90
2022-08-03T06:31:41.001Z,91.20
2022-08-03T06:34:35.175Z,90.10
2022-08-03T06:37:02.289Z,90.30
2022-08-03T06:39:35.053Z,90.00
2022-08-03T06:42:05.350Z,88.50
2022-08-03T06:44:37.960Z,89.60
2022-08-03T06:47:07.799Z,86.40
2022-08-03T06:49:37.405Z,88.00
2022-08-03T06:52:08.348Z,86.90
2022-08-03T06:54:39.806Z,85.20
2022-08-03T06:57:12.019Z,84.00
2022-08-03T07:00:08.126Z,84.30
2022-08-03T07:02:31.994Z,83.70
2022-08-03T07:05:04.106Z,83.70
2022-08-03T07:07:34.220Z,84.10
2022-08-03T07:10:08.432Z,81.90
2022-08-03T07:12:38.646Z,81.60
2022-08-03T07:15:54.161Z,83.60
2022-08-03T07:18:29.486Z,82.50
2022-08-03T07:21:01.196Z,82.00
2022-08-03T07:23:31.100Z,82.10
2022-08-03T07:26:02.287Z,82.10
2022-08-03T07:28:32.509Z,81.50
2022-08-03T07:31:02.169Z,80.30
2022-08-03T07:33:31.954Z,80.00
2022-08-03T07:36:01.680Z,79.60
2022-08-03T07:38:31.589Z,79.50
2022-08-03T07:41:02.860Z,79.20
2022-08-03T07:43:32.624Z,79.20
2022-08-03T07:46:02.198Z,79.00
2022-08-03T07:48:32.277Z,79.20
2022-08-03T07:51:03.753Z,77.50
2022-08-03T07:53:34.413Z,78.00
2022-08-03T07:56:12.658Z,77.10
2022-08-03T07:58:42.469Z,77.60
2022-08-03T08:01:14.907Z,78.70
2022-08-03T08:03:53.074Z,76.60
2022-08-03T08:06:23.918Z,75.60
2022-08-03T08:08:54.098Z,77.50
2022-08-03T08:11:25.388Z,76.30
2022-08-03T08:13:55.353Z,75.10
2022-08-03T08:16:26.212Z,74.60
2022-08-03T08:18:55.943Z,74.20
2022-08-03T08:21:27.277Z,74.10
2022-08-03T08:24:18.163Z,74.90
2022-08-03T08:26:50.923Z,75.30
2022-08-03T08:29:23.542Z,73.20
2022-08-03T08:31:53.224Z,73.40
2022-08-03T08:34:23.124Z,73.50
2022-08-03T08:36:53.222Z,74.20
2022-08-03T08:39:22.887Z,73.60
2022-08-03T08:41:55.192Z,73.30
2022-08-03T08:44:24.762Z,72.90
2022-08-03T08:46:57.412Z,72.20
2022-08-03T08:49:29.970Z,72.40
2022-08-03T08:52:01.792Z,72.80
2022-08-03T08:54:34.851Z,73.60
2022-08-03T08:57:16.407Z,71.20
2022-08-03T08:59:57.466Z,69.10
2022-08-03T09:02:26.544Z,71.40
2022-08-03T09:04:55.319Z,71.30
2022-08-03T09:07:23.880Z,70.10
2022-08-03T09:10:10.155Z,70.60
2022-08-03T09:12:45.315Z,71.30
2022-08-03T09:15:22.553Z,71.60
2022-08-03T09:17:52.797Z,71.70
2022-08-03T09:20:22.390Z,71.50
2022-08-03T09:22:56.973Z,71.60
2022-08-03T09:25:30.459Z,70.60
2022-08-03T09:28:08.604Z,70.40
2022-08-03T09:30:38.165Z,69.40
2022-08-03T09:33:08.733Z,70.70
2022-08-03T09:35:58.798Z,69.40
2022-08-03T09:38:27.909Z,68.60
2022-08-03T09:41:00.233Z,69.10
2022-08-03T09:43:46.866Z,71.00
2022-08-03T09:46:15.562Z,70.10
2022-08-03T09:48:44.083Z,69.60
2022-08-03T09:52:18.705Z,68.80
2022-08-03T09:54:05.789Z,69.90
2022-08-03T09:56:45.317Z,68.30
2022-08-03T09:59:25.237Z,68.50
2022-08-03T10:01:55.200Z,66.90
2022-08-03T10:04:24.113Z,65.50
2022-08-03T10:07:13.741Z,65.70
2022-08-03T10:09:56.311Z,66.10
2022-08-03T10:12:25.483Z,67.20
2022-08-03T10:14:56.238Z,67.70
2022-08-03T10:17:25.014Z,67.70
2022-08-03T10:19:53.594Z,67.10
2022-08-03T10:22:24.687Z,66.60
2022-08-03T10:24:57.569Z,67.50
2022-08-03T10:27:28.216Z,62.60
2022-08-03T10:30:05.002Z,65.50
2022-08-03T10:32:37.778Z,62.90
2022-08-03T10:35:19.700Z,66.30
2022-08-03T10:37:57.388Z,64.30
2022-08-03T10:40:48.236Z,62.90
2022-08-03T10:43:22.139Z,63.10
2022-08-03T10:45:53.087Z,61.60
2022-08-03T10:48:22.655Z,63.50
2022-08-03T10:50:51.896Z,61.70
2022-08-03T10:53:36.955Z,62.40
2022-08-03T10:56:35.392Z,65.00
2022-08-03T10:59:11.799Z,64.50
2022-08-03T11:02:00.395Z,60.50
2022-08-03T11:04:31.357Z,61.00
2022-08-03T11:07:24.032Z,65.40
2022-08-03T11:09:57.605Z,60.50
2022-08-03T11:12:31.413Z,60.00
2022-08-03T11:31:51.990Z,58.70
2022-08-03T11:34:20.713Z,57.90
2022-08-03T11:37:26.143Z,59.00
2022-08-03T11:39:57.377Z,59.80
2022-08-03T11:42:48.438Z,56.80
2022-08-03T11:45:19.968Z,58.80
2022-08-03T11:47:54.310Z,59.90
2022-08-03T11:50:24.589Z,57.70
2022-08-03T11:52:53.391Z,57.30
2022-08-03T11:55:23.339Z,55.80
2022-08-03T11:59:16.666Z,54.90
2022-08-03T12:00:41.548Z,54.10
2022-08-03T12:03:13.902Z,58.10
2022-08-03T12:05:51.663Z,56.00
2022-08-03T12:08:32.048Z,53.00
2022-08-03T12:11:04.579Z,54.10
2022-08-03T12:14:45.212Z,52.20
2022-08-03T12:16:32.802Z,54.40
2022-08-03T12:19:04.301Z,57.30
2022-08-03T12:21:33.362Z,53.90
2022-08-03T12:24:03.545Z,52.50
2022-08-03T12:26:45.423Z,51.10
2022-08-03T12:29:27.891Z,49.90
2022-08-03T12:31:56.668Z,50.80
2022-08-03T12:34:47.346Z,51.70
2022-08-03T12:37:20.219Z,56.30
2022-08-03T12:40:02.074Z,53.00
2022-08-03T12:42:34.960Z,49.40
2022-08-03T12:45:25.181Z,50.60
2022-08-03T12:47:55.486Z,49.20
2022-08-03T12:50:33.379Z,48.80
2022-08-03T12:53:04.774Z,51.00
2022-08-03T12:55:57.300Z,51.50
2022-08-03T12:58:35.082Z,50.00
2022-08-03T13:01:10.346Z,48.10
2022-08-03T13:03:49.593Z,48.30
2022-08-03T13:06:22.687Z,47.90
2022-08-03T13:09:03.369Z,47.40
2022-08-03T13:11:53.392Z,46.60
2022-08-03T13:14:28.186Z,46.00
2022-08-03T13:16:56.917Z,46.60
2022-08-03T13:19:26.207Z,45.40
2022-08-03T13:22:04.226Z,45.90
2022-08-03T13:24:38.651Z,46.40
2022-08-03T13:28:02.565Z,45.70
2022-08-03T13:30:17.867Z,45.10
2022-08-03T13:33:25.846Z,45.10
2022-08-03T13:36:00.940Z,45.40
2022-08-03T13:38:32.168Z,44.70
2022-08-03T13:41:05.032Z,44.00
2022-08-03T13:43:33.746Z,44.60
2022-08-03T13:46:02.317Z,43.80
2022-08-03T13:48:36.650Z,44.00
2022-08-03T13:51:21.710Z,42.40
2022-08-03T13:53:53.520Z,42.20
2022-08-03T13:56:22.038Z,42.90
2022-08-03T13:58:50.640Z,42.90
2022-08-03T14:01:34.405Z,43.80
2022-08-03T14:04:15.767Z,44.00
2022-08-03T14:06:51.036Z,43.60
2022-08-03T14:09:21.108Z,43.80
2022-08-03T14:12:07.430Z,44.70
2022-08-03T14:14:37.679Z,45.20
2022-08-03T14:17:06.357Z,46.80
2022-08-03T14:19:52.440Z,47.80
2022-08-03T14:22:24.807Z,48.60
2022-08-03T14:24:54.847Z,49.20
2022-08-03T14:27:24.545Z,47.00
2022-08-03T14:29:56.737Z,47.60
2022-08-03T14:32:25.431Z,47.10
2022-08-03T14:34:54.132Z,47.00
2022-08-03T14:37:22.922Z,48.00
2022-08-03T14:40:00.034Z,48.70
2022-08-03T14:42:33.686Z,48.10
2022-08-03T14:45:06.019Z,47.30
2022-08-03T14:49:02.762Z,48.90
2022-08-03T14:50:40.557Z,48.00
2022-08-03T14:53:11.752Z,48.10
2022-08-03T14:55:40.584Z,46.80
2022-08-03T14:58:22.046Z,47.70
2022-08-03T15:00:51.627Z,47.10
2022-08-03T15:03:23.673Z,47.30
2022-08-03T15:05:54.530Z,47.50
2022-08-03T15:08:23.879Z,47.20
2022-08-03T15:10:52.690Z,48.80
2022-08-03T15:13:23.573Z,45.60
2022-08-03T15:15:52.986Z,45.60
2022-08-03T15:18:21.638Z,44.60
2022-08-03T15:20:51.018Z,45.40
2022-08-03T15:23:20.135Z,45.50
2022-08-03T15:26:30.331Z,45.40
2022-08-03T15:28:42.737Z,43.60
2022-08-03T15:31:13.429Z,44.20
2022-08-03T15:33:54.056Z,43.80
2022-08-03T15:36:23.386Z,43.20
2022-08-03T15:38:53.134Z,44.20
2022-08-03T15:41:21.949Z,43.00
2022-08-03T15:43:52.959Z,42.80
2022-08-03T15:46:30.091Z,43.00
2022-08-03T15:48:59.925Z,42.80
2022-08-03T15:51:28.925Z,42.70
2022-08-03T15:53:58.630Z,42.20
2022-08-03T15:56:27.273Z,42.00
2022-08-03T15:59:09.576Z,41.50
2022-08-03T16:01:42.466Z,42.60
2022-08-03T16:04:12.441Z,41.30
2022-08-03T16:06:41.299Z,41.10
2022-08-03T16:09:23.471Z,40.90
2022-08-03T16:11:59.228Z,40.40
2022-08-03T16:14:32.181Z,40.30
2022-08-03T16:17:04.991Z,40.90
2022-08-03T16:19:35.661Z,40.00
2022-08-03T16:22:04.475Z,40.20
2022-08-03T16:24:33.111Z,39.40
2022-08-03T16:27:01.777Z,39.60
2022-08-03T16:29:31.739Z,39.70
2022-08-03T16:32:09.409Z,39.10
2022-08-03T16:34:39.779Z,39.50
2022-08-03T16:37:36.526Z,39.40
2022-08-03T16:39:58.007Z,40.40
2022-08-03T16:42:27.962Z,40.40
2022-08-03T16:44:58.103Z,39.40
2022-08-03T16:47:26.647Z,39.30
2022-08-03T16:49:56.539Z,39.70
2022-08-03T16:52:25.793Z,39.40
2022-08-03T16:54:55.083Z,39.00
2022-08-03T16:57:55.855Z,38.60
2022-08-03T17:00:34.251Z,38.80
2022-08-03T17:03:25.534Z,39.50
2022-08-03T17:05:53.387Z,39.30
2022-08-03T17:08:28.471Z,38.80
2022-08-03T17:10:57.843Z,38.40
2022-08-03T17:13:39.701Z,38.70
2022-08-03T17:16:15.376Z,39.10
2022-08-03T17:18:48.492Z,38.60
2022-08-03T17:21:24.239Z,38.70
2022-08-03T17:23:58.685Z,38.20
2022-08-03T17:26:30.284Z,38.20
2022-08-03T17:29:11.343Z,37.80
2022-08-03T17:31:49.543Z,37.90
2022-08-03T17:34:19.100Z,37.10
2022-08-03T17:37:05.431Z,37.60
2022-08-03T17:39:57.780Z,37.40
2022-08-03T17:42:30.068Z,37.20
2022-08-03T17:45:15.936Z,37.00
2022-08-03T17:50:42.802Z,37.70
2022-08-03T17:53:24.223Z,38.20
2022-08-03T17:56:38.843Z,38.60
2022-08-03T17:59:08.960Z,39.90
2022-08-03T18:02:11.559Z,39.90
2022-08-03T18:04:57.300Z,39.50
2022-08-03T18:07:41.218Z,39.90
2022-08-03T18:10:11.383Z,40.90
2022-08-03T18:12:51.820Z,41.20
2022-08-03T18:15:28.648Z,41.40
2022-08-03T18:18:02.672Z,41.80
2022-08-03T18:20:40.957Z,41.70
2022-08-03T18:23:25.074Z,42.00
2022-08-03T18:26:02.538Z,42.10
2022-08-03T18:28:34.618Z,41.80
2022-08-03T18:31:06.923Z,41.60
2022-08-03T18:34:18.665Z,42.40
2022-08-03T18:36:31.926Z,42.90
2022-08-03T18:39:04.057Z,42.10
2022-08-03T18:41:34.990Z,42.90
2022-08-03T18:44:08.004Z,43.10
2022-08-03T18:47:07.311Z,43.60
2022-08-03T18:49:55.650Z,44.20
2022-08-03T18:52:37.372Z,43.60
2022-08-03T18:55:20.717Z,45.20
2022-08-03T18:58:09.730Z,42.60
2022-08-03T21:13:05.734Z,37.50
